Time;durP1;ratioP1;P1;durP2;ratioP2;P2;SDS_P1;SDS_P2;PMS_P1;PMS_P2;Temp;Humidity;BMP_temperature;BMP_pressure;BME280_temperature;BME280_humidity;BME280_pressure;Samples;Min_cycle;Max_cycle;Signal;HPM_P1;HPM_P2
2021/06/27 00:02:18;;;;;;;4.67;2.80;;;16.10;99.90;;;;;;6274670;28;20191;-71
2021/06/27 00:05:26;;;;;;;2.80;2.57;;;16.10;99.90;;;;;;6231801;28;20292;-71
2021/06/27 00:08:28;;;;;;;4.70;2.67;;;16.00;99.90;;;;;;6232572;28;20196;-71
2021/06/27 00:11:30;;;;;;;2.87;2.63;;;16.00;99.90;;;;;;6249359;28;20191;-71
2021/06/27 00:14:33;;;;;;;4.07;2.50;;;16.00;99.90;;;;;;6248597;28;20206;-71
2021/06/27 00:17:35;;;;;;;3.17;2.50;;;16.00;99.90;;;;;;6248309;28;20204;-71
2021/06/27 00:20:42;;;;;;;3.27;2.83;;;15.90;99.90;;;;;;6249401;28;20222;-71
2021/06/27 00:23:47;;;;;;;2.73;2.53;;;15.90;99.90;;;;;;6249861;28;20180;-71
2021/06/27 00:26:50;;;;;;;6.20;2.83;;;15.70;99.90;;;;;;6248102;28;20270;-71
2021/06/27 00:29:52;;;;;;;4.30;3.10;;;15.70;99.90;;;;;;6223428;28;20197;-71
2021/06/27 00:32:56;;;;;;;4.87;2.67;;;15.60;99.90;;;;;;6239952;28;20266;-71
2021/06/27 00:35:58;;;;;;;2.73;2.47;;;15.60;99.90;;;;;;6224191;28;20192;-72
2021/06/27 00:39:00;;;;;;;3.80;3.00;;;15.60;99.90;;;;;;6224832;28;20224;-71
2021/06/27 00:42:03;;;;;;;4.50;3.47;;;15.60;99.90;;;;;;6222846;28;20566;-71
2021/06/27 00:45:09;;;;;;;3.13;2.83;;;15.60;99.90;;;;;;6239006;28;20471;-71
2021/06/27 00:48:12;;;;;;;3.50;2.27;;;15.50;99.90;;;;;;6224465;28;20326;-71
2021/06/27 00:51:16;;;;;;;3.00;2.80;;;15.50;99.90;;;;;;6223017;28;20243;-71
2021/06/27 00:54:18;;;;;;;3.57;2.80;;;15.60;99.90;;;;;;6239736;28;20225;-71
2021/06/27 00:57:21;;;;;;;2.77;2.57;;;15.50;99.90;;;;;;6226616;28;20576;-71
2021/06/27 01:00:31;;;;;;;4.03;2.40;;;15.50;99.90;;;;;;6248708;28;20211;-71
2021/06/27 01:03:35;;;;;;;6.03;3.00;;;15.50;99.90;;;;;;6232150;28;20223;-71
2021/06/27 01:06:37;;;;;;;3.20;3.00;;;15.60;99.90;;;;;;6272450;28;20164;-71
2021/06/27 01:09:39;;;;;;;3.13;2.83;;;15.60;99.90;;;;;;6255575;28;20203;-71
2021/06/27 01:12:43;;;;;;;3.23;3.03;;;15.60;99.90;;;;;;6272777;28;20214;-71
2021/06/27 01:15:46;;;;;;;3.00;2.70;;;15.60;99.90;;;;;;6272567;28;20233;-71
2021/06/27 01:18:53;;;;;;;3.00;2.70;;;15.60;99.90;;;;;;6254380;28;20269;-71
2021/06/27 01:21:57;;;;;;;3.53;2.90;;;15.60;99.90;;;;;;6239166;28;20234;-71
2021/06/27 01:24:59;;;;;;;5.63;2.80;;;15.50;99.90;;;;;;6238733;28;20639;-71
2021/06/27 01:28:03;;;;;;;3.40;3.00;;;15.40;99.90;;;;;;6272410;28;20196;-71
2021/06/27 01:31:06;;;;;;;3.10;2.90;;;15.40;99.90;;;;;;6272803;28;20605;-71
2021/06/27 01:34:09;;;;;;;5.83;3.40;;;15.30;99.90;;;;;;6254567;28;20500;-71
2021/06/27 01:37:11;;;;;;;3.00;2.70;;;15.30;99.90;;;;;;6254476;28;20192;-71
2021/06/27 01:40:17;;;;;;;3.30;2.77;;;15.40;99.90;;;;;;6272374;28;20196;-71
2021/06/27 01:43:22;;;;;;;5.33;3.07;;;15.40;99.90;;;;;;6254365;28;20188;-71
2021/06/27 01:46:24;;;;;;;2.97;2.67;;;15.40;99.90;;;;;;6254916;28;20651;-71
2021/06/27 01:49:26;;;;;;;3.53;3.23;;;15.50;99.90;;;;;;6271987;28;20189;-71
2021/06/27 01:52:29;;;;;;;3.40;3.07;;;15.60;99.90;;;;;;6254843;28;20249;-71
2021/06/27 01:55:31;;;;;;;3.17;2.93;;;15.60;99.90;;;;;;6272025;28;20187;-71
2021/06/27 01:58:45;;;;;;;3.73;3.10;;;15.60;99.90;;;;;;6272341;28;20529;-71
2021/06/27 02:01:47;;;;;;;3.50;3.20;;;15.70;99.90;;;;;;6272615;28;20298;-71
2021/06/27 02:04:50;;;;;;;3.40;3.10;;;15.60;99.90;;;;;;6229109;28;20586;-71
2021/06/27 02:07:52;;;;;;;3.77;3.47;;;15.60;99.90;;;;;;6247476;28;20184;-71
2021/06/27 02:10:54;;;;;;;3.57;3.23;;;15.60;99.90;;;;;;6245246;28;20207;-71
2021/06/27 02:13:57;;;;;;;4.27;3.37;;;15.50;99.90;;;;;;6245944;28;20211;-71
2021/06/27 02:16:59;;;;;;;3.60;3.30;;;15.50;99.90;;;;;;6245931;28;20200;-71
2021/06/27 02:20:05;;;;;;;3.20;2.97;;;15.40;99.90;;;;;;6244984;28;20212;-71
2021/06/27 02:23:07;;;;;;;6.17;3.17;;;15.40;99.90;;;;;;6245545;28;20186;-71
2021/06/27 02:26:11;;;;;;;4.00;3.40;;;15.40;99.90;;;;;;6245621;28;20210;-71
2021/06/27 02:29:13;;;;;;;3.77;3.47;;;15.40;99.90;;;;;;6245259;28;20421;-71
2021/06/27 02:32:15;;;;;;;3.50;3.23;;;15.30;99.90;;;;;;6244852;28;20192;-71
2021/06/27 02:35:18;;;;;;;3.50;3.20;;;15.30;99.90;;;;;;6245555;28;20199;-71
2021/06/27 02:38:21;;;;;;;6.47;3.87;;;15.30;99.90;;;;;;6245405;28;20275;-71
2021/06/27 02:41:23;;;;;;;4.87;3.90;;;15.30;99.90;;;;;;6245920;28;20269;-71
2021/06/27 02:44:26;;;;;;;4.37;3.93;;;15.30;99.90;;;;;;6246181;28;20191;-71
2021/06/27 02:47:28;;;;;;;4.37;3.97;;;15.30;99.90;;;;;;6245985;28;20199;-71
2021/06/27 02:50:31;;;;;;;4.23;3.93;;;15.20;99.90;;;;;;6244917;28;20574;-71
2021/06/27 02:53:34;;;;;;;4.50;4.10;;;15.20;99.90;;;;;;6244751;28;20188;-71
2021/06/27 02:56:36;;;;;;;4.80;4.30;;;15.20;99.90;;;;;;6246105;28;20200;-71
2021/06/27 02:59:38;;;;;;;4.90;4.40;;;15.20;99.90;;;;;;6246168;28;20703;-72
2021/06/27 03:02:40;;;;;;;6.57;4.10;;;15.10;99.90;;;;;;6244075;28;20196;-72
2021/06/27 03:05:43;;;;;;;4.77;4.27;;;15.00;99.90;;;;;;6228108;28;20224;-71
2021/06/27 03:08:45;;;;;;;5.30;4.57;;;15.00;99.90;;;;;;6244752;28;20300;-71
2021/06/27 03:11:47;;;;;;;4.10;3.80;;;15.00;99.90;;;;;;6244171;28;20203;-71
2021/06/27 03:14:49;;;;;;;5.60;5.10;;;15.00;99.90;;;;;;6245080;28;20989;-71
2021/06/27 03:17:52;;;;;;;4.83;4.40;;;14.90;99.90;;;;;;6244155;28;20204;-71
2021/06/27 03:20:54;;;;;;;5.40;4.90;;;14.90;99.90;;;;;;6245440;28;20207;-71
2021/06/27 03:23:56;;;;;;;5.20;4.70;;;15.00;99.90;;;;;;6243847;28;20701;-71
2021/06/27 03:26:58;;;;;;;5.70;5.20;;;15.00;99.90;;;;;;6245578;28;20196;-71
2021/06/27 03:30:01;;;;;;;5.57;4.90;;;15.00;99.90;;;;;;6243730;28;20283;-71
2021/06/27 03:33:03;;;;;;;4.67;4.27;;;15.00;99.90;;;;;;6244108;28;20688;-71
2021/06/27 03:36:06;;;;;;;5.63;5.10;;;15.00;99.90;;;;;;6245373;28;20188;-71
2021/06/27 03:39:11;;;;;;;5.10;4.70;;;14.90;99.90;;;;;;6243285;28;20216;-71
2021/06/27 03:42:13;;;;;;;6.33;4.77;;;14.90;99.90;;;;;;6245272;28;20270;-71
2021/06/27 03:45:16;;;;;;;5.03;4.63;;;14.90;99.90;;;;;;6245213;28;20636;-72
2021/06/27 03:48:18;;;;;;;5.27;4.77;;;14.90;99.90;;;;;;6244802;28;20187;-72
2021/06/27 03:51:20;;;;;;;6.73;5.40;;;14.90;99.90;;;;;;6244919;28;20199;-72
2021/06/27 03:54:22;;;;;;;5.43;5.03;;;14.90;99.90;;;;;;6243116;28;20561;-72
2021/06/27 03:57:25;;;;;;;6.13;4.77;;;14.90;99.90;;;;;;6227062;28;20687;-72
2021/06/27 04:00:27;;;;;;;5.60;5.10;;;14.80;99.90;;;;;;6244828;28;20211;-71
2021/06/27 04:03:29;;;;;;;6.90;5.00;;;14.80;99.90;;;;;;6244257;28;20247;-72
2021/06/27 04:06:31;;;;;;;5.87;5.17;;;14.80;99.90;;;;;;6252022;28;20171;-72
2021/06/27 04:09:34;;;;;;;6.07;5.50;;;14.80;99.90;;;;;;6268896;28;20190;-72
2021/06/27 04:12:36;;;;;;;5.83;5.30;;;14.80;99.90;;;;;;6269268;28;20206;-72
2021/06/27 04:15:38;;;;;;;5.33;4.83;;;14.90;99.90;;;;;;6269134;28;20210;-71
2021/06/27 04:18:41;;;;;;;6.87;6.13;;;14.90;99.90;;;;;;6252215;28;20542;-71
2021/06/27 04:21:43;;;;;;;5.53;5.13;;;15.00;99.90;;;;;;6269143;28;20184;-71
2021/06/27 04:24:45;;;;;;;6.67;6.07;;;15.00;99.90;;;;;;6251072;28;20192;-72
2021/06/27 04:27:48;;;;;;;5.63;5.23;;;15.00;99.90;;;;;;6251880;28;20195;-72
2021/06/27 04:30:50;;;;;;;6.07;5.53;;;15.10;99.90;;;;;;6250996;28;20561;-72
2021/06/27 04:33:52;;;;;;;5.63;5.23;;;15.10;99.90;;;;;;6268933;28;20206;-71
2021/06/27 04:36:55;;;;;;;7.17;5.37;;;15.10;99.90;;;;;;6268995;28;20773;-72
2021/06/27 04:39:57;;;;;;;6.27;5.77;;;15.10;99.90;;;;;;6250927;28;20203;-71
2021/06/27 04:43:00;;;;;;;6.00;5.50;;;15.10;99.90;;;;;;6236979;28;20206;-71
2021/06/27 04:46:03;;;;;;;5.93;5.37;;;15.20;99.90;;;;;;6255444;28;20270;-71
2021/06/27 04:49:06;;;;;;;7.57;5.63;;;15.20;99.90;;;;;;6273638;28;20240;-71
2021/06/27 04:52:09;;;;;;;5.90;5.40;;;15.20;99.90;;;;;;6273515;28;20678;-71
2021/06/27 04:55:12;;;;;;;6.20;5.37;;;15.20;99.90;;;;;;6273025;28;20195;-71
2021/06/27 04:58:14;;;;;;;6.10;5.60;;;15.20;99.90;;;;;;6239111;28;20215;-72
2021/06/27 05:01:16;;;;;;;7.63;6.13;;;15.30;99.90;;;;;;6238380;28;20290;-71
2021/06/27 05:04:19;;;;;;;6.37;5.77;;;15.30;99.90;;;;;;6255774;28;20238;-71
2021/06/27 05:07:21;;;;;;;6.20;5.57;;;15.40;99.90;;;;;;6273238;28;20702;-71
2021/06/27 05:10:24;;;;;;;7.10;6.43;;;15.40;99.90;;;;;;6272998;28;20538;-72
2021/06/27 05:13:26;;;;;;;6.13;5.40;;;15.40;99.90;;;;;;6273700;28;20353;-72
2021/06/27 05:16:28;;;;;;;6.53;5.80;;;15.50;99.90;;;;;;6272581;28;20669;-72
2021/06/27 05:19:31;;;;;;;6.20;5.70;;;15.60;99.90;;;;;;6254779;28;20223;-71
2021/06/27 05:22:33;;;;;;;6.80;6.20;;;15.70;99.90;;;;;;6254470;28;20187;-72
2021/06/27 05:25:35;;;;;;;6.90;6.20;;;15.80;99.90;;;;;;6272842;28;20193;-72
2021/06/27 05:28:37;;;;;;;6.43;5.70;;;15.80;99.90;;;;;;6254663;28;20202;-71
2021/06/27 05:31:40;;;;;;;6.50;5.83;;;15.90;99.90;;;;;;6271943;28;20194;-71
2021/06/27 05:34:42;;;;;;;6.30;5.80;;;16.00;99.90;;;;;;6272386;28;20194;-71
2021/06/27 05:37:44;;;;;;;6.43;5.90;;;16.20;99.90;;;;;;6253992;28;20214;-71
2021/06/27 05:40:47;;;;;;;6.03;5.43;;;16.40;99.90;;;;;;6272202;28;20693;-71
2021/06/27 05:43:49;;;;;;;6.17;5.67;;;16.60;99.90;;;;;;6254178;28;20206;-71
2021/06/27 05:46:51;;;;;;;7.07;5.63;;;16.70;99.90;;;;;;6271794;28;20194;-72
2021/06/27 05:49:54;;;;;;;6.80;6.20;;;16.70;99.90;;;;;;6271663;28;20270;-72
2021/06/27 05:52:56;;;;;;;6.77;5.97;;;16.70;99.90;;;;;;6271418;28;20187;-72
2021/06/27 05:56:10;;;;;;;6.30;5.70;;;16.80;99.90;;;;;;6252475;28;20207;-72
2021/06/27 05:59:12;;;;;;;6.07;5.57;;;16.80;99.90;;;;;;6271039;28;20274;-72
2021/06/27 06:02:15;;;;;;;8.20;6.00;;;16.90;99.90;;;;;;6253785;28;20191;-72
2021/06/27 06:05:17;;;;;;;6.83;6.00;;;16.90;99.90;;;;;;6254019;28;20310;-72
2021/06/27 06:08:20;;;;;;;6.30;5.80;;;17.00;99.90;;;;;;6271398;28;20209;-72
2021/06/27 06:11:25;;;;;;;6.27;5.67;;;17.00;99.90;;;;;;6253925;28;20201;-72
2021/06/27 06:14:27;;;;;;;6.87;6.27;;;17.10;99.90;;;;;;6271067;28;20198;-72
2021/06/27 06:17:29;;;;;;;6.80;6.10;;;17.20;99.90;;;;;;6271516;28;20191;-72
2021/06/27 06:20:32;;;;;;;7.40;6.40;;;17.20;99.90;;;;;;6253954;28;20570;-72
2021/06/27 06:23:34;;;;;;;7.00;5.30;;;17.30;99.90;;;;;;6251171;28;20515;-72
2021/06/27 06:26:37;;;;;;;6.10;5.50;;;17.40;99.90;;;;;;6253218;28;20195;-72
2021/06/27 06:29:39;;;;;;;5.47;5.07;;;17.50;99.90;;;;;;6237338;28;20213;-72
2021/06/27 06:32:41;;;;;;;6.60;5.47;;;17.70;99.90;;;;;;6252469;28;20214;-71
2021/06/27 06:35:44;;;;;;;5.50;5.07;;;17.90;99.90;;;;;;6252905;28;20720;-72
2021/06/27 06:38:46;;;;;;;5.60;4.40;;;18.10;99.90;;;;;;6270677;28;20274;-72
2021/06/27 06:41:48;;;;;;;4.53;4.20;;;18.40;99.90;;;;;;6270707;28;20647;-72
2021/06/27 06:44:50;;;;;;;5.70;5.10;;;18.70;99.90;;;;;;6236126;28;20282;-72
2021/06/27 06:47:54;;;;;;;5.10;4.70;;;19.00;99.90;;;;;;6252749;28;20665;-72
2021/06/27 06:50:56;;;;;;;4.80;4.40;;;19.30;99.90;;;;;;6270510;28;20729;-72
2021/06/27 06:53:58;;;;;;;5.10;4.67;;;19.70;99.90;;;;;;6269820;28;20409;-72
2021/06/27 06:57:00;;;;;;;4.97;4.57;;;20.00;99.90;;;;;;6254079;28;20183;-72
2021/06/27 07:00:06;;;;;;;5.47;4.97;;;20.30;99.90;;;;;;6271174;28;20214;-72
2021/06/27 07:03:09;;;;;;;5.20;4.80;;;20.70;99.90;;;;;;6271261;28;20175;-72
2021/06/27 07:06:12;;;;;;;5.17;4.67;;;21.00;99.90;;;;;;6244404;28;20274;-72
2021/06/27 07:09:15;;;;;;;6.43;5.03;;;21.30;99.90;;;;;;6244843;28;20199;-72
2021/06/27 07:12:17;;;;;;;6.00;5.50;;;21.60;99.90;;;;;;6245707;28;20571;-72
2021/06/27 07:15:20;;;;;;;5.40;4.90;;;21.90;99.90;;;;;;6248052;28;20183;-72
2021/06/27 07:18:22;;;;;;;5.60;5.10;;;22.20;99.90;;;;;;6243594;28;20645;-72
2021/06/27 07:21:27;;;;;;;5.50;5.00;;;22.50;99.90;;;;;;6227286;28;20220;-72
2021/06/27 07:24:29;;;;;;;5.30;4.80;;;22.70;99.90;;;;;;6244135;28;20210;-72
2021/06/27 07:27:32;;;;;;;5.10;4.70;;;23.00;99.90;;;;;;6260894;28;20797;-72
2021/06/27 07:30:34;;;;;;;6.20;5.60;;;23.30;99.90;;;;;;6243330;28;20257;-72
2021/06/27 07:33:38;;;;;;;5.63;5.13;;;23.70;99.90;;;;;;6245104;28;20192;-72
2021/06/27 07:36:41;;;;;;;4.70;4.30;;;24.00;99.90;;;;;;6244648;28;20223;-72
2021/06/27 07:39:43;;;;;;;5.17;4.70;;;24.30;99.90;;;;;;6227428;28;20223;-72
2021/06/27 07:42:45;;;;;;;4.77;4.20;;;24.50;99.90;;;;;;6227390;28;20291;-72
2021/06/27 07:45:48;;;;;;;5.03;4.63;;;24.90;99.90;;;;;;6244656;28;20257;-72
2021/06/27 07:48:50;;;;;;;4.83;4.43;;;25.20;99.70;;;;;;6245238;28;20290;-72
2021/06/27 07:51:52;;;;;;;5.20;4.80;;;25.50;99.20;;;;;;6243473;28;20678;-72
2021/06/27 07:54:55;;;;;;;4.78;4.30;;;25.70;95.90;;;;;;6245606;28;20563;-72
2021/06/27 07:57:57;;;;;;;5.05;4.57;;;26.00;96.50;;;;;;6227099;28;20219;-73
2021/06/27 08:01:00;;;;;;;4.32;4.03;;;26.20;95.50;;;;;;6244636;28;20235;-72
2021/06/27 08:04:02;;;;;;;5.65;5.15;;;26.40;95.70;;;;;;6234957;28;20757;-72
2021/06/27 08:07:04;;;;;;;5.07;4.65;;;26.60;92.40;;;;;;6293980;28;20266;-73
2021/06/27 08:10:09;;;;;;;5.15;4.75;;;26.80;94.10;;;;;;6294678;28;20237;-72
2021/06/27 08:13:11;;;;;;;4.75;4.32;;;27.00;91.50;;;;;;6294357;28;20195;-72
2021/06/27 08:16:14;;;;;;;5.72;5.05;;;27.20;91.60;;;;;;6294485;28;20233;-72
2021/06/27 08:19:16;;;;;;;5.05;4.60;;;27.30;87.50;;;;;;6299034;28;20544;-72
2021/06/27 08:22:18;;;;;;;4.72;4.32;;;27.60;89.50;;;;;;6279939;28;20209;-72
2021/06/27 08:25:21;;;;;;;4.82;4.43;;;27.90;87.50;;;;;;6281147;28;20210;-72
2021/06/27 08:28:23;;;;;;;4.28;3.97;;;28.10;79.10;;;;;;6267620;28;20207;-72
2021/06/27 08:31:27;;;;;;;4.57;4.07;;;28.20;80.00;;;;;;6256853;28;20192;-72
2021/06/27 08:34:30;;;;;;;3.90;3.50;;;28.30;74.70;;;;;;6240813;28;20218;-72
2021/06/27 08:37:32;;;;;;;4.53;3.90;;;28.50;79.90;;;;;;6275103;28;20710;-73
2021/06/27 08:40:36;;;;;;;3.78;3.47;;;28.80;70.00;;;;;;6257266;28;20203;-72
2021/06/27 08:43:42;;;;;;;4.13;3.83;;;28.80;73.00;;;;;;6255278;28;20286;-73
2021/06/27 08:46:44;;;;;;;5.15;4.65;;;29.10;75.80;;;;;;6274158;28;20172;-73
2021/06/27 08:49:49;;;;;;;4.00;3.70;;;29.30;68.00;;;;;;6255218;28;20207;-73
2021/06/27 08:52:51;;;;;;;4.85;3.78;;;29.50;69.90;;;;;;6255927;28;20190;-74
2021/06/27 08:56:06;;;;;;;3.58;3.28;;;29.60;68.50;;;;;;6273653;28;20213;-73
2021/06/27 08:59:08;;;;;;;5.35;3.65;;;29.40;67.90;;;;;;6255003;28;20573;-73
2021/06/27 09:02:10;;;;;;;4.05;3.70;;;29.50;71.10;;;;;;6255260;28;20213;-73
2021/06/27 09:05:12;;;;;;;3.47;3.28;;;29.90;71.60;;;;;;6255264;28;20621;-73
2021/06/27 09:08:16;;;;;;;3.55;3.25;;;30.40;69.50;;;;;;6273479;28;20183;-73
2021/06/27 09:11:18;;;;;;;3.75;3.45;;;30.60;62.20;;;;;;6273376;28;20554;-73
2021/06/27 09:14:34;;;;;;;3.60;3.30;;;30.70;60.10;;;;;;6272923;28;20187;-73
2021/06/27 09:17:41;;;;;;;4.32;3.92;;;31.10;64.60;;;;;;6255137;28;20184;-73
2021/06/27 09:20:49;;;;;;;3.03;2.83;;;30.90;54.90;;;;;;6238331;28;20610;-73
2021/06/27 09:23:52;;;;;;;3.67;3.38;;;30.80;57.40;;;;;;6255077;28;20187;-73
2021/06/27 09:27:17;;;;;;;3.17;2.97;;;31.20;60.20;;;;;;6272363;28;20191;-73
2021/06/27 09:30:21;;;;;;;3.47;3.17;;;31.70;57.70;;;;;;6271672;28;20175;-73
2021/06/27 09:33:29;;;;;;;3.53;3.22;;;31.70;57.60;;;;;;6254866;28;20241;-73
2021/06/27 09:36:32;;;;;;;3.15;2.88;;;31.80;56.30;;;;;;6254454;28;20192;-73
2021/06/27 09:39:35;;;;;;;2.78;2.58;;;31.70;57.40;;;;;;6272610;28;20179;-73
2021/06/27 09:42:37;;;;;;;4.45;2.90;;;31.90;58.90;;;;;;6253466;28;20203;-73
2021/06/27 09:45:56;;;;;;;3.58;3.28;;;32.00;54.90;;;;;;6253753;28;20720;-73
2021/06/27 09:49:03;;;;;;;3.22;3.00;;;31.90;52.70;;;;;;6271455;28;20611;-73
2021/06/27 09:52:09;;;;;;;3.15;2.95;;;31.80;52.30;;;;;;6272290;28;20658;-73
2021/06/27 09:55:14;;;;;;;4.63;3.20;;;32.00;52.10;;;;;;6253791;28;20301;-73
2021/06/27 09:58:16;;;;;;;3.85;3.50;;;31.90;50.70;;;;;;6271776;28;20207;-73
2021/06/27 10:01:23;;;;;;;3.58;3.30;;;31.90;49.60;;;;;;6237727;28;20686;-73
2021/06/27 10:04:33;;;;;;;3.40;3.10;;;31.50;48.80;;;;;;6253607;28;20235;-73
2021/06/27 10:07:37;;;;;;;4.55;3.10;;;31.30;50.80;;;;;;6253971;28;20647;-73
2021/06/27 10:10:40;;;;;;;3.30;3.00;;;31.70;50.00;;;;;;6254212;28;20686;-73
2021/06/27 10:13:46;;;;;;;3.55;2.90;;;32.00;51.80;;;;;;6271254;28;20198;-72
2021/06/27 10:16:49;;;;;;;3.40;2.75;;;32.40;50.30;;;;;;6254040;28;20202;-72
2021/06/27 10:19:53;;;;;;;5.38;3.28;;;32.60;51.80;;;;;;6253363;28;20195;-73
2021/06/27 10:22:56;;;;;;;3.33;3.03;;;32.90;49.90;;;;;;6254000;28;20240;-73
2021/06/27 10:25:58;;;;;;;3.30;3.00;;;32.90;49.50;;;;;;6253279;28;20677;-73
2021/06/27 10:29:01;;;;;;;3.20;3.00;;;33.00;48.40;;;;;;6253558;28;20203;-73
2021/06/27 10:32:04;;;;;;;3.78;3.10;;;32.50;47.50;;;;;;6254135;28;20314;-72
2021/06/27 10:35:08;;;;;;;3.40;3.10;;;32.60;49.00;;;;;;6253055;28;20199;-72
2021/06/27 10:38:10;;;;;;;3.35;3.05;;;32.60;48.30;;;;;;6254222;28;20563;-72
2021/06/27 10:41:13;;;;;;;3.88;3.58;;;32.50;48.20;;;;;;6252434;28;20682;-72
2021/06/27 10:44:19;;;;;;;6.28;5.63;;;33.10;47.90;;;;;;6274459;28;20268;-72
2021/06/27 10:47:32;;;;;;;4.63;4.00;;;33.00;47.10;;;;;;6253489;28;20210;-72
2021/06/27 10:50:52;;;;;;;9.27;8.38;;;33.30;46.90;;;;;;6270844;28;20211;-72
2021/06/27 10:54:11;;;;;;;5.95;5.03;;;32.80;48.30;;;;;;6271566;28;20303;-72
2021/06/27 10:57:16;;;;;;;3.63;3.33;;;31.90;49.40;;;;;;6271234;28;20302;-73
2021/06/27 11:00:21;;;;;;;4.18;3.85;;;31.40;50.80;;;;;;6252769;28;20225;-72
2021/06/27 11:03:45;;;;;;;3.28;2.97;;;31.50;51.60;;;;;;6270981;28;20737;-72
2021/06/27 11:06:47;;;;;;;3.20;2.90;;;31.90;51.00;;;;;;6253097;28;20191;-72
2021/06/27 11:09:49;;;;;;;3.10;2.78;;;32.80;49.70;;;;;;6253086;28;20191;-72
2021/06/27 11:12:55;;;;;;;3.10;2.90;;;33.60;50.00;;;;;;6251221;28;20199;-73
2021/06/27 11:15:59;;;;;;;3.95;2.60;;;34.10;46.70;;;;;;6251299;28;20784;-73
2021/06/27 11:19:21;;;;;;;3.38;2.85;;;34.00;44.20;;;;;;6249553;28;20199;-72
2021/06/27 11:22:26;;;;;;;3.08;2.88;;;33.40;45.30;;;;;;6274398;28;20348;-72
2021/06/27 11:25:38;;;;;;;3.13;2.88;;;32.80;44.90;;;;;;6270143;28;20910;-72
2021/06/27 11:28:41;;;;;;;3.70;2.60;;;32.50;44.70;;;;;;6253113;28;20188;-72
2021/06/27 11:31:43;;;;;;;3.05;2.72;;;32.40;46.50;;;;;;6252244;28;20203;-72
2021/06/27 11:34:54;;;;;;;2.72;2.53;;;32.20;49.20;;;;;;6268344;28;20199;-72
2021/06/27 11:37:58;;;;;;;3.13;2.88;;;32.30;51.40;;;;;;6269718;28;20647;-72
2021/06/27 11:41:00;;;;;;;2.58;2.38;;;32.50;49.10;;;;;;6250721;28;20678;-71
2021/06/27 11:44:14;;;;;;;4.18;3.03;;;32.20;46.60;;;;;;6251893;28;20305;-72
2021/06/27 11:47:22;;;;;;;10.23;7.15;;;32.60;46.40;;;;;;6268314;28;20188;-72
2021/06/27 11:50:31;;;;;;;4.43;2.90;;;33.00;46.90;;;;;;6251548;28;20303;-72
2021/06/27 11:53:33;;;;;;;3.45;3.15;;;33.50;48.80;;;;;;6251403;28;20299;-73
2021/06/27 11:56:54;;;;;;;2.53;2.33;;;34.10;47.80;;;;;;6268782;28;20268;-73
2021/06/27 11:59:57;;;;;;;3.05;2.75;;;34.30;44.70;;;;;;6251187;28;20195;-74
2021/06/27 12:03:10;;;;;;;3.35;3.05;;;34.00;43.50;;;;;;6250301;28;20215;-73
2021/06/27 12:06:12;;;;;;;2.92;2.72;;;33.60;43.60;;;;;;6258058;28;20226;-73
2021/06/27 12:09:34;;;;;;;2.67;2.47;;;33.90;43.60;;;;;;6266976;28;20202;-73
2021/06/27 12:12:37;;;;;;;2.80;2.60;;;34.30;41.70;;;;;;6248971;28;20271;-74
2021/06/27 12:15:48;;;;;;;2.63;2.42;;;34.50;41.90;;;;;;6270976;28;20227;-73
2021/06/27 12:18:50;;;;;;;3.00;2.70;;;34.70;41.40;;;;;;6265176;28;20262;-73
2021/06/27 12:21:59;;;;;;;2.60;2.38;;;34.70;42.80;;;;;;6268871;28;20357;-73
2021/06/27 12:25:04;;;;;;;2.70;2.50;;;34.60;41.00;;;;;;6251287;28;20196;-73
2021/06/27 12:28:15;;;;;;;3.20;2.47;;;34.30;41.60;;;;;;6268264;28;20648;-73
2021/06/27 12:31:31;;;;;;;2.50;2.38;;;34.30;42.10;;;;;;6250956;28;20234;-73
2021/06/27 12:34:34;;;;;;;4.20;2.75;;;34.00;42.20;;;;;;6266632;28;20560;-72
2021/06/27 12:37:39;;;;;;;3.47;2.47;;;34.00;42.90;;;;;;6287320;28;20183;-73
2021/06/27 12:40:50;;;;;;;2.53;2.33;;;33.80;42.80;;;;;;6270402;28;20195;-73
2021/06/27 12:44:18;;;;;;;5.13;3.20;;;33.90;42.60;;;;;;6249398;28;20210;-73
2021/06/27 12:47:29;;;;;;;2.58;2.30;;;33.90;43.00;;;;;;6225973;28;20189;-73
2021/06/27 12:50:36;;;;;;;3.00;2.70;;;34.50;41.60;;;;;;6245043;28;20176;-73
2021/06/27 12:53:38;;;;;;;3.13;2.83;;;34.30;41.50;;;;;;6225370;28;20189;-73
2021/06/27 12:56:48;;;;;;;2.42;2.30;;;33.90;41.70;;;;;;6226561;28;20202;-72
2021/06/27 12:59:53;;;;;;;2.67;2.40;;;33.80;42.20;;;;;;6250737;28;20207;-73
2021/06/27 13:03:14;;;;;;;2.92;2.60;;;34.10;44.30;;;;;;6269319;28;20682;-73
2021/06/27 13:06:16;;;;;;;4.40;2.95;;;34.00;41.00;;;;;;6273309;28;20223;-73
2021/06/27 13:09:18;;;;;;;4.13;2.58;;;33.50;41.20;;;;;;6254687;28;20207;-73
2021/06/27 13:12:22;;;;;;;2.63;2.42;;;32.70;42.50;;;;;;6253982;28;20192;-73
2021/06/27 13:15:40;;;;;;;3.85;3.10;;;32.30;42.80;;;;;;6273145;28;20746;-73
2021/06/27 13:18:45;;;;;;;3.70;2.78;;;32.40;43.10;;;;;;6235969;28;20208;-73
2021/06/27 13:21:47;;;;;;;4.35;2.67;;;33.00;42.10;;;;;;6248131;28;20204;-73
2021/06/27 13:25:01;;;;;;;4.68;2.58;;;33.50;41.30;;;;;;6246141;28;20196;-73
2021/06/27 13:28:05;;;;;;;3.85;2.50;;;34.30;40.70;;;;;;6240255;28;20204;-73
2021/06/27 13:31:21;;;;;;;5.80;5.32;;;35.20;41.40;;;;;;6254669;28;20183;-73
2021/06/27 13:34:32;;;;;;;5.82;5.32;;;35.60;39.80;;;;;;6272513;28;20192;-73
2021/06/27 13:37:53;;;;;;;3.75;3.45;;;35.30;38.80;;;;;;6255328;28;20275;-73
2021/06/27 13:40:56;;;;;;;5.55;2.70;;;35.00;39.70;;;;;;6237893;28;20200;-72
2021/06/27 13:44:01;;;;;;;93.03;79.60;;;35.10;40.20;;;;;;6273039;28;20197;-73
2021/06/27 13:47:03;;;;;;;9.40;7.55;;;35.20;40.40;;;;;;6271750;28;20192;-74
2021/06/27 13:50:06;;;;;;;4.03;3.72;;;35.50;43.50;;;;;;6272477;28;20176;-73
2021/06/27 13:53:09;;;;;;;3.15;2.85;;;36.00;42.80;;;;;;6255058;28;20557;-73
2021/06/27 13:56:17;;;;;;;2.70;2.50;;;36.10;40.60;;;;;;6254757;28;20715;-73
2021/06/27 13:59:19;;;;;;;2.80;2.60;;;35.60;40.60;;;;;;6272166;28;20207;-73
2021/06/27 14:02:22;;;;;;;3.17;2.88;;;35.10;43.20;;;;;;6272177;28;20246;-73
2021/06/27 14:05:24;;;;;;;14.52;9.73;;;34.90;44.60;;;;;;6229483;28;20246;-73
2021/06/27 14:08:26;;;;;;;3.58;2.65;;;34.70;42.20;;;;;;6245744;28;20195;-73
2021/06/27 14:11:35;;;;;;;2.78;2.40;;;35.40;44.80;;;;;;6245899;28;20715;-73
2021/06/27 14:14:37;;;;;;;2.90;2.60;;;36.20;44.60;;;;;;6246471;28;20550;-73
2021/06/27 14:17:40;;;;;;;3.40;2.38;;;36.40;40.70;;;;;;6245460;28;20282;-73
2021/06/27 14:20:43;;;;;;;3.38;2.20;;;36.60;43.80;;;;;;6245644;28;20235;-73
2021/06/27 14:23:45;;;;;;;2.85;2.45;;;36.90;43.70;;;;;;6245342;28;20235;-73
2021/06/27 14:26:49;;;;;;;4.13;2.40;;;37.30;41.10;;;;;;6245530;28;20195;-73
2021/06/27 14:29:52;;;;;;;2.90;2.70;;;37.80;42.30;;;;;;6245048;28;20453;-74
2021/06/27 14:32:54;;;;;;;3.13;2.25;;;38.20;41.10;;;;;;6245348;28;20560;-74
2021/06/27 14:35:57;;;;;;;3.00;2.38;;;38.40;41.40;;;;;;6246589;28;20180;-74
2021/06/27 14:38:59;;;;;;;2.47;2.10;;;38.80;41.10;;;;;;6246236;28;20198;-74
2021/06/27 14:42:02;;;;;;;2.50;2.30;;;39.10;38.50;;;;;;6245653;28;20219;-74
2021/06/27 14:45:05;;;;;;;2.80;2.60;;;39.00;39.30;;;;;;6244807;28;20195;-73
2021/06/27 14:48:11;;;;;;;2.10;2.00;;;38.80;41.20;;;;;;6245000;28;20648;-74
2021/06/27 14:51:13;;;;;;;2.63;2.42;;;39.00;41.70;;;;;;6245062;28;20180;-74
2021/06/27 14:54:17;;;;;;;2.40;2.20;;;39.40;39.80;;;;;;6227058;28;20308;-74
2021/06/27 14:57:21;;;;;;;3.60;2.50;;;40.20;38.20;;;;;;6244643;28;20204;-74
2021/06/27 15:00:23;;;;;;;2.97;2.53;;;40.80;35.90;;;;;;6245975;28;20223;-74
2021/06/27 15:03:26;;;;;;;2.70;2.17;;;41.20;37.70;;;;;;6245622;28;20222;-74
2021/06/27 15:06:28;;;;;;;2.20;2.10;;;41.30;37.80;;;;;;6256257;28;20191;-74
2021/06/27 15:09:31;;;;;;;2.53;2.33;;;41.50;37.80;;;;;;6254170;28;20187;-74
2021/06/27 15:12:33;;;;;;;2.35;2.25;;;41.80;37.40;;;;;;6255915;28;20294;-74
2021/06/27 15:15:37;;;;;;;2.70;2.50;;;41.30;33.20;;;;;;6255197;28;20196;-74
2021/06/27 15:18:40;;;;;;;2.72;2.53;;;41.10;31.80;;;;;;6273962;28;20187;-74
2021/06/27 15:21:42;;;;;;;3.03;2.40;;;40.80;33.00;;;;;;6252390;28;20223;-74
2021/06/27 15:24:46;;;;;;;3.72;2.05;;;40.40;33.70;;;;;;6252553;28;20654;-74
2021/06/27 15:27:48;;;;;;;2.40;2.20;;;38.70;35.70;;;;;;6252726;28;20195;-73
2021/06/27 15:30:51;;;;;;;2.08;1.88;;;37.10;37.70;;;;;;6270429;28;20674;-73
2021/06/27 15:33:53;;;;;;;1.80;1.70;;;36.00;39.70;;;;;;6252509;28;20537;-73
2021/06/27 15:36:56;;;;;;;1.75;1.65;;;36.10;38.60;;;;;;6235486;28;20201;-73
2021/06/27 15:39:58;;;;;;;1.60;1.50;;;36.50;38.20;;;;;;6244226;28;20188;-73
2021/06/27 15:43:01;;;;;;;1.40;1.30;;;36.60;37.60;;;;;;6245466;28;20214;-73
2021/06/27 15:46:03;;;;;;;2.15;1.50;;;36.70;37.60;;;;;;6243709;28;20200;-73
2021/06/27 15:49:06;;;;;;;0.93;0.93;;;36.90;37.10;;;;;;6227656;28;20188;-73
2021/06/27 15:52:08;;;;;;;1.27;1.17;;;36.60;37.00;;;;;;6243334;28;20679;-73
2021/06/27 15:55:11;;;;;;;2.13;1.10;;;36.40;38.10;;;;;;6243846;28;20214;-73
2021/06/27 15:58:13;;;;;;;0.90;0.90;;;36.60;38.10;;;;;;6251778;28;20214;-73